createdAt,value
2022-12-28T00:02:45.094Z,98906.41
2022-12-28T00:05:51.943Z,98915.47
2022-12-28T00:09:01.121Z,98895.94
2022-12-28T00:12:09.171Z,98905.19
2022-12-28T00:15:15.278Z,98895.94
2022-12-28T00:18:22.110Z,98894.81
2022-12-28T00:21:29.262Z,98899.81
2022-12-28T00:24:38.788Z,98895.94
2022-12-28T00:27:44.842Z,98896.56
2022-12-28T00:30:51.834Z,98903.50
2022-12-28T00:33:58.147Z,98899.28
2022-12-28T00:37:08.571Z,98900.97
2022-12-28T00:40:23.915Z,98876.59
2022-12-28T00:43:31.195Z,98892.94
2022-12-28T00:46:38.720Z,98893.50
2022-12-28T00:49:45.668Z,98892.84
2022-12-28T00:52:51.769Z,98895.66
2022-12-28T00:56:09.232Z,98898.53
2022-12-28T00:59:15.801Z,98899.41
2022-12-28T01:02:22.836Z,98906.47
2022-12-28T01:05:29.516Z,98909.16
2022-12-28T01:08:36.643Z,98903.69
2022-12-28T01:11:45.534Z,98906.19
2022-12-28T01:14:52.454Z,98905.78
2022-12-28T01:17:58.470Z,98899.22
2022-12-28T01:21:13.565Z,98895.69
2022-12-28T01:24:22.115Z,98898.31
2022-12-28T01:27:31.513Z,98901.31
2022-12-28T01:30:38.973Z,98893.44
2022-12-28T01:33:47.351Z,98898.13
2022-12-28T01:36:54.212Z,98905.34
2022-12-28T01:40:01.211Z,98886.53
2022-12-28T01:43:29.853Z,98889.09
2022-12-28T01:46:45.767Z,98882.47
2022-12-28T01:50:06.862Z,98891.53
2022-12-28T01:53:14.726Z,98875.81
2022-12-28T01:56:21.833Z,98877.41
2022-12-28T01:59:39.498Z,98876.66
2022-12-28T02:02:55.785Z,98872.25
2022-12-28T02:06:09.574Z,98864.88
2022-12-28T02:09:27.140Z,98871.34
2022-12-28T02:12:36.297Z,98869.56
2022-12-28T02:15:49.903Z,98867.69
2022-12-28T02:18:59.345Z,98855.34
2022-12-28T02:22:46.616Z,98851.47
2022-12-28T02:26:38.812Z,98841.91
2022-12-28T02:30:10.486Z,98831.53
2022-12-28T02:33:30.336Z,98800.44
2022-12-28T02:36:53.088Z,98819.28
2022-12-28T02:40:09.982Z,98818.75
2022-12-28T02:43:18.297Z,98826.59
2022-12-28T02:46:45.623Z,98811.84
2022-12-28T02:50:04.853Z,98814.66
2022-12-28T02:53:51.599Z,98815.56
2022-12-28T02:57:13.921Z,98806.13
2022-12-28T03:00:24.709Z,98806.97
2022-12-28T03:03:55.723Z,98795.75
2022-12-28T03:07:28.635Z,98800.22
2022-12-28T03:10:49.135Z,98794.34
2022-12-28T03:14:06.275Z,98804.34
2022-12-28T03:17:28.843Z,98805.09
2022-12-28T03:20:49.949Z,98799.53
2022-12-28T03:24:13.255Z,98792.53
2022-12-28T03:27:38.289Z,98805.31
2022-12-28T03:31:07.340Z,98801.69
2022-12-28T03:34:18.477Z,98804.66
2022-12-28T03:37:41.995Z,98800.44
2022-12-28T03:40:57.698Z,98792.38
2022-12-28T03:44:13.238Z,98784.84
2022-12-28T03:47:27.044Z,98776.88
2022-12-28T03:50:39.890Z,98775.19
2022-12-28T03:53:51.346Z,98777.81
2022-12-28T03:57:01.166Z,98771.16
2022-12-28T04:00:14.176Z,98762.47
2022-12-28T04:03:23.717Z,98744.19
2022-12-28T04:06:30.072Z,98750.59
2022-12-28T04:09:40.264Z,98746.41
2022-12-28T04:12:50.394Z,98742.47
2022-12-28T04:16:14.107Z,98729.53
2022-12-28T04:19:21.853Z,98725.84
2022-12-28T04:22:29.014Z,98739.78
2022-12-28T04:25:40.086Z,98737.72
2022-12-28T04:28:48.494Z,98727.88
2022-12-28T04:32:03.506Z,98723.66
2022-12-28T04:35:11.287Z,98729.72
2022-12-28T04:38:26.934Z,98722.19
2022-12-28T04:41:36.423Z,98721.66
2022-12-28T04:44:42.528Z,98722.28
2022-12-28T04:47:49.468Z,98712.94
2022-12-28T04:50:56.792Z,98721.44
2022-12-28T04:54:03.891Z,98716.72
2022-12-28T04:57:12.553Z,98712.31
2022-12-28T05:00:19.713Z,98710.63
2022-12-28T05:03:25.735Z,98705.88
2022-12-28T05:06:32.654Z,98707.47
2022-12-28T05:09:38.761Z,98712.59
2022-12-28T05:12:48.291Z,98702.81
2022-12-28T05:15:54.404Z,98698.41
2022-12-28T05:19:01.850Z,98699.47
2022-12-28T05:22:12.010Z,98687.91
2022-12-28T05:25:19.077Z,98688.09
2022-12-28T05:28:29.216Z,98695.22
2022-12-28T05:31:36.156Z,98685.31
2022-12-28T05:34:42.326Z,98679.72
2022-12-28T05:37:49.178Z,98681.78
2022-12-28T05:40:55.147Z,98678.06
2022-12-28T05:44:04.618Z,98672.81
2022-12-28T05:47:10.859Z,98678.53
2022-12-28T05:50:18.068Z,98674.53
2022-12-28T05:53:24.099Z,98671.38
2022-12-28T05:56:33.224Z,98671.38
2022-12-28T05:59:41.868Z,98676.78
2022-12-28T06:02:48.806Z,98675.28
2022-12-28T06:05:54.909Z,98670.25
2022-12-28T06:09:02.066Z,98664.91
2022-12-28T06:12:08.957Z,98653.41
2022-12-28T06:15:18.598Z,98659.22
2022-12-28T06:18:24.838Z,98651.00
2022-12-28T06:21:34.415Z,98652.91
2022-12-28T06:24:40.503Z,98646.91
2022-12-28T06:27:47.420Z,98642.44
2022-12-28T06:30:56.036Z,98640.84
2022-12-28T06:34:05.574Z,98646.59
2022-12-28T06:37:12.400Z,98642.78
2022-12-28T06:40:21.912Z,98640.72
2022-12-28T06:43:36.069Z,98640.06
2022-12-28T06:46:45.658Z,98642.59
2022-12-28T06:49:51.687Z,98642.41
2022-12-28T06:52:58.653Z,98635.19
2022-12-28T06:56:08.539Z,98645.97
2022-12-28T06:59:15.396Z,98638.84
2022-12-28T07:02:24.133Z,98638.34
2022-12-28T07:05:31.062Z,98631.34
2022-12-28T07:08:37.807Z,98630.78
2022-12-28T07:11:45.624Z,98626.28
2022-12-28T07:14:51.606Z,98631.53
2022-12-28T07:18:02.143Z,98620.03
2022-12-28T07:21:13.603Z,98624.66
2022-12-28T07:24:20.414Z,98618.38
2022-12-28T07:27:26.470Z,98609.28
2022-12-28T07:30:33.327Z,98612.69
2022-12-28T07:33:43.367Z,98606.94
2022-12-28T07:36:52.108Z,98615.56
2022-12-28T07:39:58.123Z,98613.81
2022-12-28T07:43:04.950Z,98610.75
2022-12-28T07:46:15.024Z,98622.72
2022-12-28T07:49:24.552Z,98617.59
2022-12-28T07:52:30.567Z,98610.97
2022-12-28T07:55:37.551Z,98601.38
2022-12-28T08:01:54.672Z,98599.97
2022-12-28T08:05:03.537Z,98599.06
2022-12-28T08:08:12.877Z,98603.56
2022-12-28T08:11:22.297Z,98601.47
2022-12-28T08:14:29.346Z,98600.59
2022-12-28T08:17:35.505Z,98602.16
2022-12-28T08:20:45.067Z,98603.41
2022-12-28T08:23:52.622Z,98600.88
2022-12-28T08:26:59.525Z,98592.13
2022-12-28T08:30:05.616Z,98592.78
2022-12-28T08:33:12.543Z,98600.75
2022-12-28T08:36:21.282Z,98597.56
2022-12-28T08:39:28.155Z,98598.81
2022-12-28T08:42:34.347Z,98593.56
2022-12-28T08:45:41.272Z,98595.09
2022-12-28T08:48:49.385Z,98595.56
2022-12-28T08:51:59.049Z,98589.22
2022-12-28T08:55:05.105Z,98596.28
2022-12-28T08:58:11.997Z,98590.22
2022-12-28T09:01:21.275Z,98585.53
2022-12-28T09:04:28.222Z,98586.50
2022-12-28T09:07:36.848Z,98588.66
2022-12-28T09:10:43.686Z,98590.09
2022-12-28T09:13:50.205Z,98596.44
2022-12-28T09:16:57.729Z,98593.09
2022-12-28T09:20:03.835Z,98590.09
2022-12-28T09:23:13.552Z,98573.84
2022-12-28T09:26:23.291Z,98586.75
2022-12-28T09:29:30.179Z,98591.16
2022-12-28T09:32:36.250Z,98586.25
2022-12-28T09:35:43.087Z,98580.00
2022-12-28T09:38:53.390Z,98585.25
2022-12-28T09:42:06.155Z,98566.47
2022-12-28T09:45:16.266Z,98593.13
2022-12-28T09:48:28.035Z,98587.88
2022-12-28T09:51:44.667Z,98586.22
2022-12-28T09:54:54.300Z,98572.38
2022-12-28T09:58:03.529Z,98590.75
2022-12-28T10:01:19.660Z,98595.44
2022-12-28T10:04:26.991Z,98590.03
2022-12-28T10:07:34.741Z,98578.09
2022-12-28T10:10:49.149Z,98581.34
2022-12-28T10:14:01.492Z,98571.31
2022-12-28T10:17:09.761Z,98564.38
2022-12-28T10:20:23.405Z,98568.00
2022-12-28T10:23:41.235Z,98552.34
2022-12-28T10:27:04.099Z,98542.06
2022-12-28T10:30:24.178Z,98530.25
2022-12-28T10:33:31.374Z,98517.47
2022-12-28T10:36:37.673Z,98510.88
2022-12-28T10:39:54.848Z,98501.22
2022-12-28T10:43:10.166Z,98503.72
2022-12-28T10:46:22.968Z,98495.25
2022-12-28T10:49:34.802Z,98486.28
2022-12-28T10:52:42.398Z,98480.03
2022-12-28T10:55:49.084Z,98472.28
2022-12-28T10:59:28.090Z,98480.38
2022-12-28T11:02:35.960Z,98465.81
2022-12-28T11:05:42.936Z,98470.34
2022-12-28T11:09:17.779Z,98469.94
2022-12-28T11:12:32.118Z,98467.28
2022-12-28T11:15:44.392Z,98458.63
2022-12-28T11:18:51.687Z,98442.16
2022-12-28T11:21:57.912Z,98436.88
2022-12-28T11:25:08.645Z,98425.16
2022-12-28T11:28:20.130Z,98430.03
2022-12-28T11:31:40.999Z,98425.84
2022-12-28T11:34:48.756Z,98392.63
2022-12-28T11:38:00.018Z,98414.25
2022-12-28T11:41:06.268Z,98408.13
2022-12-28T11:44:46.269Z,98392.34
2022-12-28T11:47:54.983Z,98399.09
2022-12-28T11:51:08.121Z,98396.22
2022-12-28T11:54:42.871Z,98393.47
2022-12-28T11:57:50.023Z,98385.47
2022-12-28T12:00:57.008Z,98386.19
2022-12-28T12:04:43.552Z,98385.81
2022-12-28T12:07:51.580Z,98373.13
2022-12-28T12:11:33.598Z,98349.94
2022-12-28T12:14:47.200Z,98348.44
2022-12-28T12:18:05.037Z,98360.28
2022-12-28T12:21:33.211Z,98359.13
2022-12-28T12:24:54.656Z,98361.00
2022-12-28T12:28:09.883Z,98352.59
2022-12-28T12:31:27.339Z,98345.28
2022-12-28T12:34:47.809Z,98344.81
2022-12-28T12:38:02.781Z,98334.25
2022-12-28T12:41:32.251Z,98346.44
2022-12-28T12:44:55.512Z,98335.91
2022-12-28T12:48:30.850Z,98340.63
2022-12-28T12:51:53.781Z,98338.69
2022-12-28T12:55:23.123Z,98337.31
2022-12-28T12:58:44.763Z,98323.25
2022-12-28T13:02:11.860Z,98317.16
2022-12-28T13:05:25.492Z,98309.13
2022-12-28T13:08:43.790Z,98312.47
2022-12-28T13:11:54.313Z,98307.91
2022-12-28T13:15:10.801Z,98301.72
2022-12-28T13:21:52.273Z,98275.41
2022-12-28T13:24:59.479Z,98276.22
2022-12-28T13:28:09.330Z,98275.53
2022-12-28T13:31:24.691Z,98279.72
2022-12-28T13:34:33.904Z,98275.00
2022-12-28T13:37:40.912Z,98274.84
2022-12-28T13:40:56.478Z,98262.91
2022-12-28T13:44:42.898Z,98261.53
2022-12-28T13:47:55.878Z,98268.72
2022-12-28T13:51:03.089Z,98262.75
2022-12-28T13:54:13.568Z,98260.13
2022-12-28T14:00:58.416Z,98260.38
2022-12-28T14:04:51.248Z,98261.59
2022-12-28T14:07:40.881Z,98266.00
2022-12-28T14:10:51.457Z,98253.94
2022-12-28T14:14:00.745Z,98259.44
2022-12-28T14:17:12.535Z,98265.69
2022-12-28T14:20:19.640Z,98266.94
2022-12-28T14:23:29.740Z,98271.47
2022-12-28T14:26:38.269Z,98270.75
2022-12-28T14:30:00.738Z,98260.19
2022-12-28T14:33:28.596Z,98253.22
2022-12-28T14:36:55.477Z,98256.06
2022-12-28T14:40:31.422Z,98259.47
2022-12-28T14:43:58.675Z,98264.47
2022-12-28T14:47:06.419Z,98258.38
2022-12-28T14:50:27.211Z,98264.16
2022-12-28T14:53:35.017Z,98259.47
2022-12-28T14:56:43.275Z,98256.03
2022-12-28T15:00:02.300Z,98243.66
2022-12-28T15:03:22.133Z,98230.50
2022-12-28T15:06:35.001Z,98232.81
2022-12-28T15:09:41.942Z,98232.94
2022-12-28T15:12:48.848Z,98232.94
2022-12-28T15:16:01.559Z,98229.88
2022-12-28T15:19:08.846Z,98221.97
2022-12-28T15:22:17.783Z,98215.28
2022-12-28T15:25:25.533Z,98216.66
2022-12-28T15:28:31.667Z,98216.53
2022-12-28T15:31:38.612Z,98205.31
2022-12-28T15:34:44.886Z,98214.00
2022-12-28T15:37:54.540Z,98202.53
2022-12-28T15:41:01.141Z,98202.97
2022-12-28T15:44:09.358Z,98202.06
2022-12-28T15:47:15.532Z,98201.00
2022-12-28T15:50:22.437Z,98197.88
2022-12-28T15:53:31.118Z,98184.53
2022-12-28T15:56:41.507Z,98185.78
2022-12-28T15:59:47.646Z,98183.16
2022-12-28T16:02:55.707Z,98183.16
2022-12-28T16:06:04.125Z,98187.19
2022-12-28T16:09:15.567Z,98184.28
2022-12-28T16:12:21.664Z,98191.94
2022-12-28T16:15:28.668Z,98185.72
2022-12-28T16:18:34.866Z,98181.72
2022-12-28T16:21:41.835Z,98184.34
2022-12-28T16:24:51.190Z,98181.59
2022-12-28T16:27:58.107Z,98177.44
2022-12-28T16:31:05.485Z,98179.19
2022-12-28T16:34:16.722Z,98174.16
2022-12-28T16:37:22.790Z,98170.50
2022-12-28T16:40:32.367Z,98168.94
2022-12-28T16:43:38.485Z,98171.84
2022-12-28T16:46:45.683Z,98175.28
2022-12-28T16:49:51.780Z,98161.94
2022-12-28T16:53:01.074Z,98164.81
2022-12-28T16:56:10.715Z,98160.06
2022-12-28T16:59:20.722Z,98164.78
2022-12-28T17:02:27.076Z,98167.25
2022-12-28T17:05:37.002Z,98154.97
2022-12-28T17:08:43.211Z,98168.94
2022-12-28T17:11:54.225Z,98170.78
2022-12-28T17:15:04.788Z,98159.16
2022-12-28T17:18:12.903Z,98163.97
2022-12-28T17:21:19.001Z,98173.66
2022-12-28T17:24:26.224Z,98176.03
2022-12-28T17:27:35.051Z,98176.75
2022-12-28T17:30:41.936Z,98175.72
2022-12-28T17:33:48.857Z,98168.88
2022-12-28T17:36:55.833Z,98171.03
2022-12-28T17:40:01.975Z,98166.31
2022-12-28T17:43:11.628Z,98166.56
2022-12-28T17:46:18.417Z,98150.59
2022-12-28T17:49:25.452Z,98165.78
2022-12-28T17:52:31.883Z,98163.31
2022-12-28T17:55:40.226Z,98165.16
2022-12-28T17:58:49.756Z,98163.75
2022-12-28T18:01:57.089Z,98165.47
2022-12-28T18:05:03.395Z,98163.72
2022-12-28T18:08:10.384Z,98163.28
2022-12-28T18:11:16.542Z,98171.78
2022-12-28T18:14:26.257Z,98170.59
2022-12-28T18:17:32.558Z,98170.28
2022-12-28T18:20:40.084Z,98166.00
2022-12-28T18:23:48.932Z,98162.91
2022-12-28T18:26:55.821Z,98161.13
2022-12-28T18:30:04.518Z,98152.47
2022-12-28T18:33:11.436Z,98159.25
2022-12-28T18:36:18.699Z,98152.41
2022-12-28T18:39:25.764Z,98152.31
2022-12-28T18:42:31.978Z,98154.28
2022-12-28T18:45:41.513Z,98156.19
2022-12-28T18:48:47.659Z,98157.22
2022-12-28T18:51:54.584Z,98163.75
2022-12-28T18:55:00.781Z,98158.94
2022-12-28T18:58:07.797Z,98167.25
2022-12-28T19:01:55.941Z,98163.53
2022-12-28T19:04:48.312Z,98149.44
2022-12-28T19:07:54.521Z,98164.06
2022-12-28T19:11:01.642Z,98172.06
2022-12-28T19:14:08.897Z,98158.25
2022-12-28T19:17:18.419Z,98160.22
2022-12-28T19:20:24.817Z,98166.56
2022-12-28T19:23:31.815Z,98165.50
2022-12-28T19:26:39.569Z,98159.25
2022-12-28T19:29:46.512Z,98144.31
2022-12-28T19:32:55.467Z,98150.41
2022-12-28T19:36:02.385Z,98157.47
2022-12-28T19:39:09.059Z,98152.09
2022-12-28T19:42:16.104Z,98150.41
2022-12-28T19:45:22.254Z,98152.53
2022-12-28T19:48:31.793Z,98152.13
2022-12-28T19:51:37.902Z,98142.03
2022-12-28T19:54:45.621Z,98140.59
2022-12-28T19:57:51.650Z,98132.84
2022-12-28T20:00:58.677Z,98134.19
2022-12-28T20:04:13.377Z,98125.88
2022-12-28T20:07:21.152Z,98124.63
2022-12-28T20:10:29.135Z,98122.84
2022-12-28T20:13:39.073Z,98112.84
2022-12-28T20:16:46.589Z,98111.63
2022-12-28T20:19:56.278Z,98108.59
2022-12-28T20:23:02.873Z,98115.28
2022-12-28T20:26:10.227Z,98116.81
2022-12-28T20:29:16.946Z,98119.72
2022-12-28T20:32:24.022Z,98112.22
2022-12-28T20:35:32.826Z,98109.84
2022-12-28T20:38:40.046Z,98104.69
2022-12-28T20:41:58.542Z,98107.06
2022-12-28T20:45:05.631Z,98106.50
2022-12-28T20:48:11.718Z,98113.59
2022-12-28T20:51:22.135Z,98105.97
2022-12-28T20:54:28.713Z,98098.25
2022-12-28T20:57:35.670Z,98093.53
2022-12-28T21:00:42.574Z,98091.03
2022-12-28T21:03:49.851Z,98087.09
2022-12-28T21:06:58.787Z,98074.59
2022-12-28T21:10:07.444Z,98079.03
2022-12-28T21:13:13.743Z,98072.78
2022-12-28T21:16:22.079Z,98069.19
2022-12-28T21:19:28.265Z,98065.72
2022-12-28T21:22:37.697Z,98071.31
2022-12-28T21:25:43.891Z,98065.00
2022-12-28T21:28:51.005Z,98062.00
2022-12-28T21:31:58.036Z,98056.75
2022-12-28T21:35:05.041Z,98051.22
2022-12-28T21:38:13.930Z,98044.75
2022-12-28T21:41:44.447Z,98045.44
2022-12-28T21:44:50.508Z,98044.50
2022-12-28T21:47:57.474Z,98044.94
2022-12-28T21:51:29.805Z,98036.06
2022-12-28T21:54:40.082Z,98041.47
2022-12-28T21:57:46.133Z,98033.00
2022-12-28T22:01:05.463Z,98035.34
2022-12-28T22:04:28.264Z,98032.06
2022-12-28T22:07:38.114Z,98021.09
2022-12-28T22:10:59.059Z,98011.09
2022-12-28T22:14:06.484Z,98002.22
2022-12-28T22:17:14.642Z,98005.09
2022-12-28T22:20:21.857Z,98022.84
2022-12-28T22:23:34.241Z,97999.22
2022-12-28T22:26:44.336Z,98009.88
2022-12-28T22:29:50.392Z,98026.34
2022-12-28T22:32:57.941Z,98024.56
2022-12-28T22:36:12.985Z,98033.28
2022-12-28T22:39:19.978Z,98026.66
2022-12-28T22:42:28.807Z,98019.34
2022-12-28T22:45:35.825Z,98030.53
2022-12-28T22:48:42.454Z,98032.13
2022-12-28T22:51:51.023Z,98039.44
2022-12-28T22:54:57.105Z,98040.28
2022-12-28T22:58:06.550Z,98038.75
2022-12-28T23:01:16.297Z,98042.63
2022-12-28T23:04:23.878Z,98024.66
2022-12-28T23:07:29.951Z,98027.84
2022-12-28T23:10:36.830Z,98014.81
2022-12-28T23:13:45.602Z,98017.22
2022-12-28T23:16:50.763Z,98018.47
2022-12-28T23:20:09.181Z,98019.84
2022-12-28T23:23:28.326Z,98015.03
2022-12-28T23:26:46.775Z,98010.34
2022-12-28T23:29:56.221Z,98014.31
2022-12-28T23:33:02.431Z,98020.28
2022-12-28T23:36:10.699Z,98018.97
2022-12-28T23:39:16.752Z,98016.75
2022-12-28T23:42:23.762Z,98014.44
2022-12-28T23:45:32.397Z,98018.63
2022-12-28T23:48:39.261Z,98030.09
2022-12-28T23:51:47.883Z,98027.47
2022-12-28T23:54:54.734Z,98024.59
2022-12-28T23:58:00.804Z,98016.28
